Time;durP1;ratioP1;P1;durP2;ratioP2;P2;SDS_P1;SDS_P2;PMS_P1;PMS_P2;Temp;Humidity;BMP_temperature;BMP_pressure;BME280_temperature;BME280_humidity;BME280_pressure;Samples;Min_cycle;Max_cycle;Signal;HPM_P1;HPM_P2
2023/06/16 00:00:43;;;;;;;5.30;4.40;;;;;;;15.93;87.01;95261.19;106631;1276;22527;-75
2023/06/16 00:03:35;;;;;;;7.80;4.50;;;;;;;15.92;86.74;95262.34;106580;1276;24261;-75
2023/06/16 00:06:14;;;;;;;7.80;4.50;;;;;;;15.90;86.94;95256.05;106586;1276;22613;-76
2023/06/16 00:08:45;;;;;;;5.30;4.60;;;;;;;15.90;86.88;95253.02;106551;1276;24550;-75
2023/06/16 00:11:17;;;;;;;7.20;4.50;;;;;;;15.90;86.83;95250.17;106585;1276;25448;-75
2023/06/16 00:13:46;;;;;;;5.60;4.50;;;;;;;15.89;86.84;95247.92;106624;1276;22517;-76
2023/06/16 00:16:19;;;;;;;8.20;4.20;;;;;;;15.84;86.63;95250.11;106544;1276;24377;-75
2023/06/16 00:18:57;;;;;;;;;;;;;;;15.72;86.70;95250.80;106569;1276;26620;-76
2023/06/16 00:21:29;;;;;;;5.30;4.20;;;;;;;15.58;86.76;95254.89;106576;1276;25299;-75
2023/06/16 00:23:57;;;;;;;6.30;4.10;;;;;;;15.56;87.51;95251.47;106583;1276;22519;-75
2023/06/16 00:26:26;;;;;;;5.70;4.40;;;;;;;15.60;87.90;95247.73;106599;1276;22530;-75
2023/06/16 00:28:55;;;;;;;6.90;4.50;;;;;;;15.53;87.85;95246.79;106604;1276;24205;-75
2023/06/16 00:31:29;;;;;;;5.40;3.70;;;;;;;15.52;87.81;95247.92;106514;1276;23866;-75
2023/06/16 00:33:58;;;;;;;4.50;3.70;;;;;;;15.46;88.17;95242.68;106596;1276;24258;-76
2023/06/16 00:36:27;;;;;;;3.70;3.20;;;;;;;15.44;88.14;95240.64;106627;1276;24160;-75
2023/06/16 00:38:55;;;;;;;4.10;3.60;;;;;;;15.43;88.37;95240.50;106625;1276;24347;-75
2023/06/16 00:41:24;;;;;;;4.20;3.60;;;;;;;15.43;88.81;95237.31;106611;1276;24205;-75
2023/06/16 00:43:53;;;;;;;3.80;3.40;;;;;;;15.49;89.27;95237.23;106569;1276;24258;-75
2023/06/16 00:46:27;;;;;;;4.00;3.60;;;;;;;15.60;89.19;95234.96;106586;1276;24255;-75
2023/06/16 00:48:57;;;;;;;3.40;2.90;;;;;;;15.72;88.96;95231.46;106593;1276;24251;-75
2023/06/16 00:51:30;;;;;;;4.50;3.60;;;;;;;15.75;88.57;95230.80;106644;1276;22601;-76
2023/06/16 00:53:59;;;;;;;4.80;3.50;;;;;;;15.78;88.62;95227.98;106586;1276;23925;-75
2023/06/16 00:56:29;;;;;;;4.10;3.60;;;;;;;15.78;88.42;95225.33;106613;1273;22520;-76
2023/06/16 00:58:59;;;;;;;3.80;3.20;;;;;;;15.83;88.41;95223.17;106603;1276;25252;-76
2023/06/16 01:01:29;;;;;;;8.40;3.80;;;;;;;15.81;88.01;95219.73;106561;1276;25317;-76
2023/06/16 01:03:57;;;;;;;3.40;2.90;;;;;;;15.82;88.18;95217.74;106615;1276;22521;-76
2023/06/16 01:06:38;;;;;;;3.50;3.00;;;;;;;15.83;88.03;95214.30;106442;1276;22519;-76
2023/06/16 01:09:26;;;;;;;4.30;3.00;;;;;;;15.82;87.72;95216.47;106576;1276;22515;-76
2023/06/16 01:12:03;;;;;;;4.50;3.00;;;;;;;15.83;87.91;95210.77;106591;1276;25386;-76
2023/06/16 01:14:45;;;;;;;4.00;3.20;;;;;;;15.87;87.86;95209.85;106614;1276;22524;-76
2023/06/16 01:17:15;;;;;;;4.40;3.40;;;;;;;15.87;87.57;95206.11;106538;1276;24245;-76
2023/06/16 01:20:07;;;;;;;4.50;2.90;;;;;;;15.85;87.40;95201.45;106567;1276;22521;-76
2023/06/16 01:22:56;;;;;;;4.20;3.10;;;;;;;15.74;87.30;95199.08;106540;1276;22530;-76
2023/06/16 01:25:29;;;;;;;3.30;3.00;;;;;;;15.67;87.47;95197.98;106546;1276;24201;-76
2023/06/16 01:28:03;;;;;;;3.60;2.70;;;;;;;15.55;87.96;95199.72;106598;1276;22550;-75
2023/06/16 01:30:33;;;;;;;3.60;2.60;;;;;;;15.44;88.13;95197.58;106621;1276;22532;-76
2023/06/16 01:33:03;;;;;;;3.10;2.60;;;;;;;15.37;88.45;95200.52;106580;1276;24349;-76
2023/06/16 01:35:33;;;;;;;4.70;2.50;;;;;;;15.32;88.90;95196.83;106572;1276;22520;-76
2023/06/16 01:38:02;;;;;;;3.80;2.90;;;;;;;15.24;89.23;95193.32;106634;1276;22524;-76
2023/06/16 01:40:32;;;;;;;2.80;2.40;;;;;;;15.20;89.38;95193.13;106591;1276;22522;-76
2023/06/16 01:43:01;;;;;;;6.10;3.10;;;;;;;15.18;89.46;95190.21;106637;1276;22617;-76
2023/06/16 01:45:31;;;;;;;3.50;3.10;;;;;;;15.15;89.83;95187.28;106585;1276;24216;-76
2023/06/16 01:47:59;;;;;;;2.70;2.50;;;;;;;15.12;90.00;95186.53;106668;1258;25494;-75
2023/06/16 01:50:28;;;;;;;3.90;1.80;;;;;;;15.09;89.95;95185.26;106510;1276;25382;-76
2023/06/16 01:52:56;;;;;;;1.70;1.60;;;;;;;15.09;90.45;95187.05;106595;1276;24233;-76
2023/06/16 01:55:25;;;;;;;4.70;1.80;;;;;;;15.10;90.38;95186.81;106555;1276;25264;-76
2023/06/16 01:57:56;;;;;;;2.00;1.80;;;;;;;15.12;90.69;95183.91;106616;1276;25268;-76
2023/06/16 02:00:50;;;;;;;1.70;1.60;;;;;;;15.18;90.80;95181.72;106600;1266;24685;-76
2023/06/16 02:03:43;;;;;;;1.50;1.40;;;;;;;15.27;90.91;95175.96;106577;1276;22996;-75
2023/06/16 02:06:18;;;;;;;1.30;1.20;;;;;;;15.33;90.55;95174.45;106385;1276;22594;-76
2023/06/16 02:08:50;;;;;;;2.80;1.50;;;;;;;15.41;90.50;95172.36;106564;1276;24254;-76
2023/06/16 02:11:19;;;;;;;3.00;1.30;;;;;;;15.46;90.13;95171.79;106559;1276;25397;-76
2023/06/16 02:13:49;;;;;;;2.50;1.30;;;;;;;15.47;90.17;95168.91;106657;1276;25574;-76
2023/06/16 02:16:19;;;;;;;1.30;1.20;;;;;;;15.46;90.04;95168.21;106588;1276;22652;-76
2023/06/16 02:18:53;;;;;;;2.90;1.40;;;;;;;15.52;89.85;95167.63;106604;1276;22778;-76
2023/06/16 02:21:22;;;;;;;1.40;1.30;;;;;;;15.54;89.61;95163.96;106593;1276;25299;-76
2023/06/16 02:23:52;;;;;;;1.40;1.30;;;;;;;15.60;89.67;95164.05;106628;1276;25471;-76
2023/06/16 02:26:21;;;;;;;2.50;1.20;;;;;;;15.61;89.28;95160.50;106530;1276;22641;-75
2023/06/16 02:28:51;;;;;;;2.50;1.40;;;;;;;15.64;89.42;95160.52;106615;1276;22539;-76
2023/06/16 02:31:19;;;;;;;1.60;1.50;;;;;;;15.71;89.38;95157.05;106627;1276;25288;-76
2023/06/16 02:33:51;;;;;;;1.50;1.40;;;;;;;15.76;89.18;95156.45;106617;1276;22692;-76
2023/06/16 02:36:20;;;;;;;3.70;1.30;;;;;;;15.81;88.86;95151.98;106576;1276;25323;-76
2023/06/16 02:38:48;;;;;;;2.00;1.50;;;;;;;15.83;88.61;95148.19;106578;1276;22520;-76
2023/06/16 02:41:16;;;;;;;2.30;1.20;;;;;;;15.80;88.14;95151.11;106512;1276;22653;-76
2023/06/16 02:43:45;;;;;;;2.50;1.50;;;;;;;15.78;88.28;95146.40;106610;1276;22537;-76
2023/06/16 02:46:13;;;;;;;2.50;1.40;;;;;;;15.74;88.26;95146.06;106604;1276;22526;-76
2023/06/16 02:48:41;;;;;;;2.40;1.50;;;;;;;15.71;88.71;95149.41;106559;1276;22513;-76
2023/06/16 02:51:10;;;;;;;1.90;1.80;;;;;;;15.74;88.66;95141.83;106597;1276;22541;-76
2023/06/16 02:53:39;;;;;;;2.10;1.80;;;;;;;15.70;88.44;95139.70;106588;1276;24330;-76
2023/06/16 02:56:08;;;;;;;2.00;1.80;;;;;;;15.71;88.72;95139.30;106601;1276;25223;-75
2023/06/16 02:58:36;;;;;;;2.20;1.90;;;;;;;15.78;88.96;95142.19;106588;1276;24072;-76
2023/06/16 03:01:05;;;;;;;2.20;2.00;;;;;;;15.80;88.46;95138.36;106583;1276;22642;-76
2023/06/16 03:03:56;;;;;;;2.80;2.40;;;;;;;15.70;88.22;95139.67;106613;1276;22537;-76
2023/06/16 03:06:51;;;;;;;5.00;2.30;;;;;;;15.65;88.92;95141.14;106449;1276;22655;-75
2023/06/16 03:09:32;;;;;;;3.40;2.00;;;;;;;15.69;89.29;95136.17;106592;1276;22770;-75
2023/06/16 03:12:01;;;;;;;2.30;1.80;;;;;;;15.75;89.13;95133.96;106660;1276;22523;-74
2023/06/16 03:14:32;;;;;;;2.90;2.20;;;;;;;15.83;89.04;95129.70;106703;1276;25258;-74
2023/06/16 03:17:09;;;;;;;4.60;2.50;;;;;;;15.90;88.70;95135.05;106584;1276;23597;-74
2023/06/16 03:19:38;;;;;;;2.60;2.40;;;;;;;15.92;88.28;95138.52;106837;1276;25247;-74
2023/06/16 03:22:06;;;;;;;3.00;2.50;;;;;;;15.92;88.07;95140.83;106725;1276;22529;-74
2023/06/16 03:24:41;;;;;;;2.90;2.10;;;;;;;15.86;87.36;95142.53;106515;1276;23157;-74
2023/06/16 03:27:11;;;;;;;3.40;2.30;;;;;;;15.84;87.92;95136.79;106600;1276;22527;-74
2023/06/16 03:30:01;;;;;;;3.20;2.50;;;;;;;15.86;88.11;95138.06;106549;1276;22510;-74
2023/06/16 03:32:46;;;;;;;3.60;3.10;;;;;;;15.94;88.26;95141.42;106561;1276;25351;-74
2023/06/16 03:35:17;;;;;;;11.50;9.40;;;;;;;15.95;87.87;95141.38;106557;1276;22521;-74
2023/06/16 03:37:46;;;;;;;13.10;10.20;;;;;;;15.93;87.65;95140.04;106545;1276;22524;-75
2023/06/16 03:40:17;;;;;;;9.60;7.80;;;;;;;15.91;87.85;95141.02;106568;1276;22534;-74
2023/06/16 03:42:46;;;;;;;8.20;6.90;;;;;;;15.93;88.11;95136.34;106693;1267;25374;-74
2023/06/16 03:45:15;;;;;;;7.00;6.10;;;;;;;15.93;87.63;95135.27;106799;1276;22531;-74
2023/06/16 03:47:43;;;;;;;13.30;11.60;;;;;;;15.87;87.74;95128.82;106605;1276;22530;-74
2023/06/16 03:50:12;;;;;;;11.50;9.80;;;;;;;15.74;87.67;95130.64;106656;1276;25258;-75
2023/06/16 03:52:42;;;;;;;9.40;8.00;;;;;;;15.62;88.18;95126.73;106581;1276;22533;-74
2023/06/16 03:55:11;;;;;;;9.20;7.30;;;;;;;15.53;89.06;95124.65;106582;1276;22521;-74
2023/06/16 03:57:39;;;;;;;8.10;7.00;;;;;;;15.55;89.14;95117.64;106408;1276;22521;-74
2023/06/16 04:00:09;;;;;;;8.50;7.40;;;;;;;15.61;89.56;95118.11;106599;1276;25401;-74
2023/06/16 04:02:48;;;;;;;5.20;4.70;;;;;;;15.61;89.80;95113.52;106601;1276;22517;-74
2023/06/16 04:05:23;;;;;;;6.40;4.50;;;;;;;15.58;89.37;95114.66;106415;1277;22803;-75
2023/06/16 04:07:54;;;;;;;6.20;4.50;;;;;;;15.58;89.42;95113.27;106577;1277;22524;-75
2023/06/16 04:10:22;;;;;;;6.20;4.50;;;;;;;15.57;89.55;95112.95;106586;1277;24425;-74
2023/06/16 04:12:50;;;;;;;4.30;3.10;;;;;;;15.54;89.60;95113.27;106471;1277;25376;-75
2023/06/16 04:15:19;;;;;;;3.40;3.10;;;;;;;15.52;89.52;95111.27;106239;1277;22530;-74
2023/06/16 04:17:47;;;;;;;2.90;2.60;;;;;;;15.50;89.76;95111.16;106569;1277;22523;-75
2023/06/16 04:20:16;;;;;;;3.80;3.00;;;;;;;15.50;89.82;95113.83;106515;1277;22524;-74
2023/06/16 04:22:45;;;;;;;4.30;2.60;;;;;;;15.51;89.82;95111.83;106465;1277;22528;-74
2023/06/16 04:25:13;;;;;;;3.70;2.60;;;;;;;15.51;89.93;95107.72;106477;1277;22575;-74
2023/06/16 04:27:43;;;;;;;3.40;2.60;;;;;;;15.53;90.46;95107.99;106517;1277;22527;-75
2023/06/16 04:30:12;;;;;;;2.50;2.30;;;;;;;15.54;90.66;95106.91;106592;1277;22689;-74
2023/06/16 04:32:44;;;;;;;5.60;2.50;;;;;;;15.57;90.55;95107.98;106549;1277;22533;-74
2023/06/16 04:35:13;;;;;;;2.50;2.30;;;;;;;15.62;90.57;95104.76;106476;1277;22497;-75
2023/06/16 04:37:43;;;;;;;3.00;2.30;;;;;;;15.71;90.95;95105.23;106463;1277;22535;-75
2023/06/16 04:40:11;;;;;;;3.70;2.40;;;;;;;15.83;90.76;95105.23;106503;1277;22527;-76
2023/06/16 04:42:39;;;;;;;3.10;2.30;;;;;;;15.93;90.56;95103.88;106499;1277;25316;-77
2023/06/16 04:45:08;;;;;;;3.40;2.30;;;;;;;16.05;90.46;95107.05;106531;1277;22636;-74
2023/06/16 04:47:41;;;;;;;3.10;2.50;;;;;;;16.16;90.07;95103.84;106529;1277;23931;-75
2023/06/16 04:50:10;;;;;;;2.70;2.20;;;;;;;16.26;89.70;95104.62;106453;1277;25271;-74
2023/06/16 04:52:39;;;;;;;4.30;2.40;;;;;;;16.28;88.84;95104.15;106540;1277;24294;-75
2023/06/16 04:55:08;;;;;;;4.50;2.60;;;;;;;16.31;88.91;95103.33;106447;1260;24244;-74
2023/06/16 04:57:37;;;;;;;2.80;2.30;;;;;;;16.34;88.70;95100.13;106566;1277;25426;-75
2023/06/16 05:00:07;;;;;;;2.90;2.30;;;;;;;16.38;88.88;95098.34;106523;1277;25387;-75
2023/06/16 05:02:37;;;;;;;4.30;2.70;;;;;;;16.38;88.18;95101.89;106453;1277;22527;-75
2023/06/16 05:05:06;;;;;;;2.80;2.40;;;;;;;16.34;88.20;95104.18;106621;1276;24249;-74
2023/06/16 05:07:36;;;;;;;3.00;2.50;;;;;;;16.39;88.61;95110.55;106714;1276;22554;-74
2023/06/16 05:10:08;;;;;;;3.60;2.80;;;;;;;16.42;88.07;95108.94;106616;1276;22517;-74
2023/06/16 05:12:37;;;;;;;3.20;2.50;;;;;;;16.42;87.78;95103.27;106441;1276;24246;-74
2023/06/16 05:15:06;;;;;;;2.90;2.10;;;;;;;16.46;87.92;95099.39;106570;1276;22528;-77
2023/06/16 05:17:36;;;;;;;5.50;2.40;;;;;;;16.49;87.72;95098.51;106564;1276;24209;-74
2023/06/16 05:20:06;;;;;;;3.10;2.80;;;;;;;16.47;87.23;95097.73;106421;1276;24226;-76
2023/06/16 05:22:36;;;;;;;3.00;2.40;;;;;;;16.45;87.36;95099.77;106605;1276;24067;-76
2023/06/16 05:25:05;;;;;;;2.70;2.40;;;;;;;16.43;87.27;95093.66;106629;1276;22538;-76
2023/06/16 05:27:33;;;;;;;3.80;2.70;;;;;;;16.42;87.38;95095.81;106542;1271;24212;-76
2023/06/16 05:30:01;;;;;;;4.40;2.60;;;;;;;16.47;87.67;95094.88;106501;1276;25366;-75
2023/06/16 05:32:30;;;;;;;4.20;2.90;;;;;;;16.51;87.40;95094.34;106643;1254;25265;-75
2023/06/16 05:35:00;;;;;;;3.60;2.70;;;;;;;16.51;87.28;95094.13;106703;1276;22531;-75
2023/06/16 05:37:29;;;;;;;2.50;2.30;;;;;;;16.54;87.13;95092.02;106592;1270;22578;-75
2023/06/16 05:39:57;;;;;;;3.30;2.70;;;;;;;16.56;87.19;95092.80;106595;1276;22531;-75
2023/06/16 05:42:25;;;;;;;3.10;2.60;;;;;;;16.60;87.30;95097.93;106534;1276;22590;-75
2023/06/16 05:44:54;;;;;;;3.50;2.50;;;;;;;16.62;86.85;95099.62;106600;1276;22641;-75
2023/06/16 05:47:22;;;;;;;3.00;2.60;;;;;;;16.61;86.63;95101.06;106539;1276;24383;-76
2023/06/16 05:49:51;;;;;;;3.10;1.90;;;;;;;16.60;86.48;95101.52;106544;1276;22528;-75
2023/06/16 05:52:20;;;;;;;2.80;2.40;;;;;;;16.55;86.43;95102.98;106569;1276;22524;-75
2023/06/16 05:54:48;;;;;;;3.10;2.60;;;;;;;16.50;86.54;95102.73;106599;1276;22746;-75
2023/06/16 05:57:24;;;;;;;2.80;2.40;;;;;;;16.48;86.83;95107.63;106472;1276;22613;-75
2023/06/16 05:59:52;;;;;;;5.00;2.90;;;;;;;16.50;87.00;95106.42;106646;1276;24198;-75
2023/06/16 06:02:21;;;;;;;4.40;2.60;;;;;;;16.50;86.77;95106.09;106637;1276;22538;-75
2023/06/16 06:12:38;;;;;;;3.30;2.90;;;;;;;16.46;86.91;95103.44;103634;1313;545742;-75
2023/06/16 06:15:07;;;;;;;3.80;2.80;;;;;;;16.46;86.97;95108.08;106074;1288;22519;-75
2023/06/16 06:17:35;;;;;;;3.40;2.70;;;;;;;16.50;87.21;95104.34;106108;1288;22535;-71
2023/06/16 06:20:05;;;;;;;3.40;2.60;;;;;;;16.50;86.67;95103.10;105905;1288;25409;-75
2023/06/16 06:22:34;;;;;;;3.50;2.50;;;;;;;16.47;86.69;95100.73;106089;1288;24438;-76
2023/06/16 06:25:04;;;;;;;3.20;2.80;;;;;;;16.45;86.77;95100.83;106053;1289;24058;-75
2023/06/16 06:27:32;;;;;;;3.20;2.60;;;;;;;16.43;86.76;95100.77;105626;1286;25199;-75
2023/06/16 06:30:01;;;;;;;3.40;3.00;;;;;;;16.34;87.10;95097.27;105854;1286;25396;-75
2023/06/16 06:32:29;;;;;;;3.70;3.40;;;;;;;16.34;87.51;95099.79;105871;1286;25342;-75
2023/06/16 06:34:58;;;;;;;3.30;3.00;;;;;;;16.34;87.54;95101.71;106317;1279;22523;-75
2023/06/16 06:37:30;;;;;;;89.00;60.80;;;;;;;16.35;87.51;95104.33;106281;1279;23919;-75
2023/06/16 06:39:58;;;;;;;11.60;9.60;;;;;;;16.33;87.71;95106.56;106701;1279;22533;-75
2023/06/16 06:42:27;;;;;;;6.80;4.10;;;;;;;16.29;87.90;95104.13;106648;1279;22560;-75
2023/06/16 06:44:58;;;;;;;5.80;3.50;;;;;;;16.30;88.38;95102.64;106491;1279;22527;-75
2023/06/16 06:47:26;;;;;;;3.40;2.80;;;;;;;16.31;87.89;95102.79;106645;1279;25305;-75
2023/06/16 06:49:58;;;;;;;4.30;2.90;;;;;;;16.34;88.48;95109.51;106294;1279;22721;-76
2023/06/16 06:52:27;;;;;;;3.20;2.80;;;;;;;16.37;88.26;95109.36;106322;1279;22524;-75
2023/06/16 06:54:56;;;;;;;3.60;2.80;;;;;;;16.38;88.62;95104.92;106280;1279;22780;-76
2023/06/16 06:57:24;;;;;;;3.40;2.80;;;;;;;16.43;88.29;95106.23;106316;1279;24240;-76
2023/06/16 06:59:53;;;;;;;3.60;3.30;;;;;;;16.50;88.25;95111.80;106310;1279;24371;-76
2023/06/16 07:02:21;;;;;;;5.00;3.00;;;;;;;16.54;87.94;95116.92;106270;1278;25337;-76
2023/06/16 07:04:50;;;;;;;4.60;2.90;;;;;;;16.58;87.97;95113.48;106327;1279;26624;-75
2023/06/16 07:07:18;;;;;;;3.20;2.90;;;;;;;16.62;87.75;95105.30;106217;1279;22543;-75
2023/06/16 07:09:46;;;;;;;3.00;2.40;;;;;;;16.64;87.13;95100.22;106291;1279;24332;-75
2023/06/16 07:12:14;;;;;;;4.00;2.60;;;;;;;16.69;87.33;95104.95;106322;1279;24231;-75
2023/06/16 07:14:47;;;;;;;2.60;2.40;;;;;;;16.83;87.50;95102.48;106452;1279;22532;-75
2023/06/16 07:17:15;;;;;;;2.60;2.40;;;;;;;17.01;87.50;95099.27;106452;1279;22639;-75
2023/06/16 07:19:44;;;;;;;3.10;2.60;;;;;;;17.20;87.44;95097.92;106528;1279;22519;-75
2023/06/16 07:22:13;;;;;;;3.40;2.30;;;;;;;17.41;87.35;95095.60;106674;1279;24364;-75
2023/06/16 07:24:41;;;;;;;2.80;2.30;;;;;;;17.61;86.15;95098.24;106520;1279;22520;-75
2023/06/16 07:27:09;;;;;;;2.60;2.20;;;;;;;17.73;85.62;95102.41;106676;1279;22523;-75
2023/06/16 07:29:37;;;;;;;2.40;2.20;;;;;;;17.67;83.90;95104.13;106703;1275;24382;-77
2023/06/16 07:32:06;;;;;;;2.70;2.50;;;;;;;17.57;83.73;95101.65;106595;1275;22512;-79
2023/06/16 07:34:34;;;;;;;2.90;2.20;;;;;;;17.63;84.54;95104.50;106688;1275;24302;-73
2023/06/16 07:37:05;;;;;;;2.80;2.40;;;;;;;17.69;83.83;95102.58;106658;1275;25399;-74
2023/06/16 07:39:33;;;;;;;3.30;2.60;;;;;;;17.78;83.73;95096.61;106634;1275;22504;-78
2023/06/16 07:42:02;;;;;;;2.40;2.20;;;;;;;17.85;83.74;95096.81;106615;1275;25428;-76
2023/06/16 07:44:30;;;;;;;2.60;2.30;;;;;;;18.00;84.40;95099.89;106519;1275;22522;-82
2023/06/16 07:46:58;;;;;;;3.30;2.70;;;;;;;18.15;83.78;95097.77;106713;1275;22527;-74
2023/06/16 07:49:29;;;;;;;3.50;2.60;;;;;;;18.21;83.25;95100.84;106598;1275;22531;-74
2023/06/16 07:51:57;;;;;;;2.70;2.50;;;;;;;18.27;82.67;95101.39;106637;1275;25294;-75
2023/06/16 07:54:25;;;;;;;2.80;2.60;;;;;;;18.24;81.86;95099.94;106628;1275;22504;-80
2023/06/16 07:56:53;;;;;;;2.80;2.50;;;;;;;18.26;82.21;95099.14;106671;1275;22563;-80
2023/06/16 07:59:21;;;;;;;2.90;2.30;;;;;;;18.24;81.44;95093.04;106596;1275;24191;-70
2023/06/16 08:01:50;;;;;;;3.00;2.30;;;;;;;18.14;80.51;95091.77;106643;1254;25924;-71
2023/06/16 08:04:19;;;;;;;2.20;2.00;;;;;;;18.14;81.12;95092.30;106689;1275;22559;-65
2023/06/16 08:06:47;;;;;;;3.20;2.40;;;;;;;18.24;81.17;95095.68;106650;1275;22548;-68
2023/06/16 08:09:16;;;;;;;2.20;2.00;;;;;;;18.29;80.55;95096.12;106571;1275;22577;-71
2023/06/16 08:11:44;;;;;;;2.60;1.70;;;;;;;18.31;80.22;95097.60;106690;1273;22797;-83
2023/06/16 08:14:13;;;;;;;2.30;1.90;;;;;;;18.33;80.42;95095.89;106623;1275;22527;-70
2023/06/16 08:16:41;;;;;;;2.10;1.80;;;;;;;18.42;80.26;95094.48;106549;1275;24177;-73
2023/06/16 08:19:09;;;;;;;2.20;2.00;;;;;;;18.51;79.16;95092.40;106520;1275;25268;-72
2023/06/16 08:21:38;;;;;;;2.80;1.90;;;;;;;18.57;80.20;95091.66;106597;1254;25684;-73
2023/06/16 08:24:06;;;;;;;1.70;1.60;;;;;;;18.68;80.40;95095.64;106475;1275;23880;-72
2023/06/16 08:26:35;;;;;;;2.00;1.90;;;;;;;18.71;79.64;95093.00;106673;1275;22893;-73
2023/06/16 08:29:04;;;;;;;2.30;2.10;;;;;;;18.79;79.73;95093.23;106649;1275;22517;-73
2023/06/16 08:31:32;;;;;;;2.00;1.80;;;;;;;18.88;79.37;95089.68;106664;1275;24240;-72
2023/06/16 08:34:01;;;;;;;4.50;2.20;;;;;;;18.96;78.87;95087.58;107526;1275;23076;-72
2023/06/16 08:36:29;;;;;;;2.20;2.00;;;;;;;19.07;78.51;95083.25;106639;1275;25322;-73
2023/06/16 08:38:58;;;;;;;2.80;2.10;;;;;;;19.15;78.91;95079.16;106727;1275;23905;-73
2023/06/16 08:41:28;;;;;;;4.00;2.00;;;;;;;19.24;79.34;95077.54;106604;1275;22526;-73
2023/06/16 08:43:58;;;;;;;2.10;1.90;;;;;;;19.24;77.88;95081.15;106643;1275;25322;-73
2023/06/16 08:46:27;;;;;;;2.20;2.00;;;;;;;19.08;76.83;95081.38;106499;1275;23910;-73
2023/06/16 08:48:55;;;;;;;2.30;2.10;;;;;;;18.97;77.67;95081.52;106609;1275;22532;-73
2023/06/16 08:51:26;;;;;;;2.90;2.20;;;;;;;18.92;78.46;95082.50;106492;1275;22513;-73
2023/06/16 08:54:00;;;;;;;1.90;1.60;;;;;;;18.85;79.66;95083.10;106625;1275;22570;-72
2023/06/16 08:56:33;;;;;;;2.00;1.80;;;;;;;18.71;79.36;95085.17;107503;1275;25312;-73
2023/06/16 08:59:03;;;;;;;1.90;1.80;;;;;;;18.66;79.66;95084.21;106538;1272;22641;-73
2023/06/16 09:01:33;;;;;;;2.30;2.10;;;;;;;18.67;79.81;95087.00;106723;1254;26484;-72
2023/06/16 09:04:02;;;;;;;2.50;2.20;;;;;;;18.70;79.96;95085.72;106626;1277;22516;-72
2023/06/16 09:06:31;;;;;;;3.60;2.20;;;;;;;18.67;79.88;95087.15;106720;1277;23874;-72
2023/06/16 09:09:00;;;;;;;2.50;2.30;;;;;;;18.66;80.05;95091.88;106569;1276;22535;-73
2023/06/16 09:11:28;;;;;;;2.20;1.90;;;;;;;18.65;80.14;95093.00;106569;1277;24410;-73
2023/06/16 09:13:56;;;;;;;2.60;2.20;;;;;;;18.65;80.40;95089.22;106467;1277;22612;-72
2023/06/16 09:16:24;;;;;;;2.40;2.00;;;;;;;18.68;80.28;95090.69;106959;1270;24206;-72
2023/06/16 09:18:54;;;;;;;3.40;1.90;;;;;;;18.67;80.07;95091.62;106552;1277;22517;-72
2023/06/16 09:21:23;;;;;;;5.30;2.10;;;;;;;18.64;80.02;95092.66;106473;1276;22634;-68
2023/06/16 09:23:57;;;;;;;1.90;1.80;;;;;;;18.60;79.86;95090.73;106572;1276;24263;-72
2023/06/16 09:26:30;;;;;;;2.10;1.90;;;;;;;18.63;80.25;95087.04;106604;1269;22510;-76
2023/06/16 09:28:58;;;;;;;2.10;1.90;;;;;;;18.65;80.23;95083.69;106649;1276;25346;-74
2023/06/16 09:31:27;;;;;;;3.60;2.00;;;;;;;18.64;79.93;95086.09;106625;1276;22528;-74
2023/06/16 09:34:06;;;;;;;2.50;2.30;;;;;;;18.63;80.11;95082.60;106849;1276;22523;-75
2023/06/16 09:36:37;;;;;;;2.00;1.80;;;;;;;18.64;80.35;95081.85;106679;1276;24228;-73
2023/06/16 09:39:25;;;;;;;3.90;2.10;;;;;;;18.61;80.18;95082.34;106508;1276;22523;-75
2023/06/16 09:41:54;;;;;;;2.30;1.90;;;;;;;18.63;80.46;95076.55;106584;1276;25281;-75
2023/06/16 09:44:26;;;;;;;2.00;1.80;;;;;;;18.66;80.48;95072.80;106702;1276;22641;-74
2023/06/16 09:46:59;;;;;;;2.50;2.00;;;;;;;18.71;80.42;95068.23;106878;1276;23101;-75
2023/06/16 09:49:27;;;;;;;;;;;;;;;18.72;81.25;95067.59;106776;1276;22501;-74
2023/06/16 09:51:57;;;;;;;3.90;2.00;;;;;;;18.85;81.20;95068.68;106559;1276;22756;-75
2023/06/16 09:54:27;;;;;;;2.00;1.90;;;;;;;18.97;81.06;95069.52;106571;1276;25217;-75
2023/06/16 09:56:56;;;;;;;2.00;1.90;;;;;;;19.02;80.31;95068.36;106661;1276;22534;-75
2023/06/16 09:59:26;;;;;;;2.40;2.10;;;;;;;19.01;80.70;95074.09;106622;1276;25393;-75
2023/06/16 10:01:56;;;;;;;2.60;2.40;;;;;;;19.07;81.06;95070.08;106664;1276;25462;-76
2023/06/16 10:04:26;;;;;;;3.90;2.60;;;;;;;19.05;80.46;95073.73;106612;1276;22506;-76
2023/06/16 10:07:02;;;;;;;3.10;2.50;;;;;;;19.03;80.57;95072.21;106675;1264;24390;-80
2023/06/16 10:09:39;;;;;;;2.60;2.40;;;;;;;19.02;80.22;95072.84;106601;1276;22536;-78
2023/06/16 10:12:27;;;;;;;3.10;2.50;;;;;;;18.94;80.35;95073.11;106577;1276;22514;-79
2023/06/16 10:14:58;;;;;;;2.50;2.30;;;;;;;18.92;80.41;95073.42;106648;1276;22876;-78
2023/06/16 10:17:28;;;;;;;2.40;2.20;;;;;;;18.94;80.35;95070.30;106995;1276;23912;-77
2023/06/16 10:19:57;;;;;;;3.10;2.20;;;;;;;18.93;80.31;95069.09;106736;1276;22748;-75
2023/06/16 10:22:26;;;;;;;2.50;2.30;;;;;;;18.89;80.43;95070.23;106626;1276;22592;-75
2023/06/16 10:24:55;;;;;;;2.40;2.20;;;;;;;18.85;80.41;95073.69;106595;1276;22511;-75
2023/06/16 10:27:23;;;;;;;2.20;2.00;;;;;;;18.76;80.25;95071.11;106536;1269;22639;-74
2023/06/16 10:29:53;;;;;;;2.00;1.80;;;;;;;18.70;80.50;95067.55;106614;1276;25246;-75
2023/06/16 10:32:22;;;;;;;2.20;2.00;;;;;;;18.68;80.52;95065.20;106563;1276;22748;-77
2023/06/16 10:34:56;;;;;;;1.60;1.50;;;;;;;18.64;80.42;95062.05;106564;1277;22629;-74
